sensor_id;sensor_type;location;lat;lon;timestamp;temperature;humidity
23560;DHT22;11958;50.836;4.438;2023-11-21T00:00:55;11.10;94.60
23560;DHT22;11958;50.836;4.438;2023-11-21T00:03:20;10.80;94.30
23560;DHT22;11958;50.836;4.438;2023-11-21T00:05:49;10.70;95.30
23560;DHT22;11958;50.836;4.438;2023-11-21T00:08:14;10.60;95.20
23560;DHT22;11958;50.836;4.438;2023-11-21T00:10:40;10.60;95.50
23560;DHT22;11958;50.836;4.438;2023-11-21T00:13:06;10.80;95.50
23560;DHT22;11958;50.836;4.438;2023-11-21T00:15:31;11.10;94.70
23560;DHT22;11958;50.836;4.438;2023-11-21T00:17:57;11.10;94.10
23560;DHT22;11958;50.836;4.438;2023-11-21T00:20:23;10.90;94.30
23560;DHT22;11958;50.836;4.438;2023-11-21T00:22:49;10.90;94.90
23560;DHT22;11958;50.836;4.438;2023-11-21T00:25:14;10.70;94.90
23560;DHT22;11958;50.836;4.438;2023-11-21T00:27:42;10.80;95.00
23560;DHT22;11958;50.836;4.438;2023-11-21T00:30:08;10.70;95.40
23560;DHT22;11958;50.836;4.438;2023-11-21T00:32:38;10.70;95.30
23560;DHT22;11958;50.836;4.438;2023-11-21T00:35:05;10.70;94.80
23560;DHT22;11958;50.836;4.438;2023-11-21T00:37:31;10.60;94.80
23560;DHT22;11958;50.836;4.438;2023-11-21T00:39:57;10.50;95.10
23560;DHT22;11958;50.836;4.438;2023-11-21T00:42:23;10.70;95.50
23560;DHT22;11958;50.836;4.438;2023-11-21T00:44:49;10.60;95.10
23560;DHT22;11958;50.836;4.438;2023-11-21T00:47:15;10.90;95.40
23560;DHT22;11958;50.836;4.438;2023-11-21T00:49:40;10.90;94.40
23560;DHT22;11958;50.836;4.438;2023-11-21T00:52:06;10.60;94.00
23560;DHT22;11958;50.836;4.438;2023-11-21T00:54:32;10.60;94.70
23560;DHT22;11958;50.836;4.438;2023-11-21T00:56:59;10.60;94.50
23560;DHT22;11958;50.836;4.438;2023-11-21T00:59:25;10.30;94.80
23560;DHT22;11958;50.836;4.438;2023-11-21T01:01:51;10.20;95.40
23560;DHT22;11958;50.836;4.438;2023-11-21T01:04:17;10.10;95.40
23560;DHT22;11958;50.836;4.438;2023-11-21T01:06:42;10.10;96.20
23560;DHT22;11958;50.836;4.438;2023-11-21T01:09:08;10.20;96.40
23560;DHT22;11958;50.836;4.438;2023-11-21T01:11:35;10.20;96.20
23560;DHT22;11958;50.836;4.438;2023-11-21T01:14:03;10.00;96.00
23560;DHT22;11958;50.836;4.438;2023-11-21T01:16:29;10.10;96.10
23560;DHT22;11958;50.836;4.438;2023-11-21T01:18:55;9.80;97.00
23560;DHT22;11958;50.836;4.438;2023-11-21T01:21:21;9.90;97.90
23560;DHT22;11958;50.836;4.438;2023-11-21T01:23:47;9.70;98.20
23560;DHT22;11958;50.836;4.438;2023-11-21T01:26:12;10.00;97.70
23560;DHT22;11958;50.836;4.438;2023-11-21T01:28:38;10.10;97.80
23560;DHT22;11958;50.836;4.438;2023-11-21T01:31:04;10.10;97.20
23560;DHT22;11958;50.836;4.438;2023-11-21T01:33:30;10.00;97.20
23560;DHT22;11958;50.836;4.438;2023-11-21T01:35:55;10.00;97.30
23560;DHT22;11958;50.836;4.438;2023-11-21T01:38:21;9.90;97.60
23560;DHT22;11958;50.836;4.438;2023-11-21T01:40:47;9.90;97.50
23560;DHT22;11958;50.836;4.438;2023-11-21T01:43:13;9.90;97.70
23560;DHT22;11958;50.836;4.438;2023-11-21T01:45:39;10.10;97.40
23560;DHT22;11958;50.836;4.438;2023-11-21T01:48:05;10.00;97.60
23560;DHT22;11958;50.836;4.438;2023-11-21T01:50:33;10.20;97.30
23560;DHT22;11958;50.836;4.438;2023-11-21T01:53:00;10.30;96.80
23560;DHT22;11958;50.836;4.438;2023-11-21T01:55:27;10.20;97.30
23560;DHT22;11958;50.836;4.438;2023-11-21T01:57:54;10.40;97.00
23560;DHT22;11958;50.836;4.438;2023-11-21T02:00:20;10.50;96.30
23560;DHT22;11958;50.836;4.438;2023-11-21T02:02:47;10.40;96.20
23560;DHT22;11958;50.836;4.438;2023-11-21T02:05:16;10.60;95.70
23560;DHT22;11958;50.836;4.438;2023-11-21T02:07:44;10.50;95.50
23560;DHT22;11958;50.836;4.438;2023-11-21T02:10:10;10.60;95.90
23560;DHT22;11958;50.836;4.438;2023-11-21T02:12:40;10.70;95.30
23560;DHT22;11958;50.836;4.438;2023-11-21T02:15:06;10.70;95.10
23560;DHT22;11958;50.836;4.438;2023-11-21T02:17:41;10.60;94.60
23560;DHT22;11958;50.836;4.438;2023-11-21T02:20:10;10.40;95.20
23560;DHT22;11958;50.836;4.438;2023-11-21T02:22:41;10.70;95.90
23560;DHT22;11958;50.836;4.438;2023-11-21T02:25:08;10.80;95.10
23560;DHT22;11958;50.836;4.438;2023-11-21T02:27:34;10.90;94.60
23560;DHT22;11958;50.836;4.438;2023-11-21T02:29:59;10.80;94.40
23560;DHT22;11958;50.836;4.438;2023-11-21T02:32:26;10.70;95.10
23560;DHT22;11958;50.836;4.438;2023-11-21T02:34:52;11.00;94.50
23560;DHT22;11958;50.836;4.438;2023-11-21T02:37:21;10.80;94.50
23560;DHT22;11958;50.836;4.438;2023-11-21T02:39:47;10.80;94.30
23560;DHT22;11958;50.836;4.438;2023-11-21T02:42:12;10.50;94.90
23560;DHT22;11958;50.836;4.438;2023-11-21T02:44:38;10.30;95.70
23560;DHT22;11958;50.836;4.438;2023-11-21T02:47:04;10.30;96.20
23560;DHT22;11958;50.836;4.438;2023-11-21T02:49:29;10.30;96.10
23560;DHT22;11958;50.836;4.438;2023-11-21T02:51:56;10.20;96.40
23560;DHT22;11958;50.836;4.438;2023-11-21T02:54:21;10.20;96.50
23560;DHT22;11958;50.836;4.438;2023-11-21T02:56:48;10.30;97.20
23560;DHT22;11958;50.836;4.438;2023-11-21T02:59:15;10.40;96.90
23560;DHT22;11958;50.836;4.438;2023-11-21T03:01:43;10.50;96.70
23560;DHT22;11958;50.836;4.438;2023-11-21T03:04:09;10.60;96.40
23560;DHT22;11958;50.836;4.438;2023-11-21T03:06:35;10.40;96.40
23560;DHT22;11958;50.836;4.438;2023-11-21T03:09:00;10.70;95.90
23560;DHT22;11958;50.836;4.438;2023-11-21T03:11:26;11.10;94.60
23560;DHT22;11958;50.836;4.438;2023-11-21T03:13:52;11.10;93.60
23560;DHT22;11958;50.836;4.438;2023-11-21T03:16:18;11.00;94.20
23560;DHT22;11958;50.836;4.438;2023-11-21T03:18:44;11.00;94.30
23560;DHT22;11958;50.836;4.438;2023-11-21T03:21:10;10.60;94.20
23560;DHT22;11958;50.836;4.438;2023-11-21T03:23:36;10.30;95.30
23560;DHT22;11958;50.836;4.438;2023-11-21T03:26:03;10.30;96.40
23560;DHT22;11958;50.836;4.438;2023-11-21T03:28:29;10.30;96.70
23560;DHT22;11958;50.836;4.438;2023-11-21T03:30:55;10.30;96.60
23560;DHT22;11958;50.836;4.438;2023-11-21T03:33:21;10.80;96.50
23560;DHT22;11958;50.836;4.438;2023-11-21T03:35:48;10.90;95.70
23560;DHT22;11958;50.836;4.438;2023-11-21T03:38:13;10.80;95.50
23560;DHT22;11958;50.836;4.438;2023-11-21T03:40:39;11.00;95.30
23560;DHT22;11958;50.836;4.438;2023-11-21T03:43:05;11.10;94.60
23560;DHT22;11958;50.836;4.438;2023-11-21T03:45:31;11.00;94.60
23560;DHT22;11958;50.836;4.438;2023-11-21T03:47:57;11.10;94.20
23560;DHT22;11958;50.836;4.438;2023-11-21T03:50:23;11.10;93.90
23560;DHT22;11958;50.836;4.438;2023-11-21T03:52:48;10.80;94.10
23560;DHT22;11958;50.836;4.438;2023-11-21T03:55:14;10.90;94.50
23560;DHT22;11958;50.836;4.438;2023-11-21T03:57:40;10.80;94.80
23560;DHT22;11958;50.836;4.438;2023-11-21T04:00:06;10.90;95.00
23560;DHT22;11958;50.836;4.438;2023-11-21T04:02:34;11.00;94.30
23560;DHT22;11958;50.836;4.438;2023-11-21T04:05:00;10.70;94.70
23560;DHT22;11958;50.836;4.438;2023-11-21T04:07:26;11.00;94.90
23560;DHT22;11958;50.836;4.438;2023-11-21T04:09:52;11.30;93.80
23560;DHT22;11958;50.836;4.438;2023-11-21T04:12:19;10.80;94.10
23560;DHT22;11958;50.836;4.438;2023-11-21T04:14:45;10.70;95.20
23560;DHT22;11958;50.836;4.438;2023-11-21T04:17:10;10.70;95.50
23560;DHT22;11958;50.836;4.438;2023-11-21T04:19:36;10.70;95.70
23560;DHT22;11958;50.836;4.438;2023-11-21T04:22:02;10.70;95.40
23560;DHT22;11958;50.836;4.438;2023-11-21T04:24:27;10.80;95.30
23560;DHT22;11958;50.836;4.438;2023-11-21T04:26:53;10.70;95.40
23560;DHT22;11958;50.836;4.438;2023-11-21T04:29:19;10.60;95.40
23560;DHT22;11958;50.836;4.438;2023-11-21T04:31:44;10.50;96.10
23560;DHT22;11958;50.836;4.438;2023-11-21T04:34:10;10.80;96.80
23560;DHT22;11958;50.836;4.438;2023-11-21T04:36:36;10.80;95.90
23560;DHT22;11958;50.836;4.438;2023-11-21T04:39:02;11.00;95.10
23560;DHT22;11958;50.836;4.438;2023-11-21T04:41:28;11.10;94.40
23560;DHT22;11958;50.836;4.438;2023-11-21T04:43:53;11.10;94.50
23560;DHT22;11958;50.836;4.438;2023-11-21T04:46:19;11.00;94.50
23560;DHT22;11958;50.836;4.438;2023-11-21T04:48:44;10.60;95.30
23560;DHT22;11958;50.836;4.438;2023-11-21T04:51:10;10.50;96.20
23560;DHT22;11958;50.836;4.438;2023-11-21T04:53:38;10.80;96.10
23560;DHT22;11958;50.836;4.438;2023-11-21T04:56:05;10.80;95.20
23560;DHT22;11958;50.836;4.438;2023-11-21T04:58:31;10.70;95.50
23560;DHT22;11958;50.836;4.438;2023-11-21T05:00:57;10.90;95.90
23560;DHT22;11958;50.836;4.438;2023-11-21T05:03:23;10.80;95.20
23560;DHT22;11958;50.836;4.438;2023-11-21T05:05:49;10.90;94.80
23560;DHT22;11958;50.836;4.438;2023-11-21T05:08:15;10.90;95.20
23560;DHT22;11958;50.836;4.438;2023-11-21T05:10:40;10.80;95.00
23560;DHT22;11958;50.836;4.438;2023-11-21T05:13:06;10.90;95.30
23560;DHT22;11958;50.836;4.438;2023-11-21T05:15:36;11.00;94.90
23560;DHT22;11958;50.836;4.438;2023-11-21T05:18:02;10.70;95.30
23560;DHT22;11958;50.836;4.438;2023-11-21T05:20:27;10.50;96.00
23560;DHT22;11958;50.836;4.438;2023-11-21T05:22:53;10.30;97.20
23560;DHT22;11958;50.836;4.438;2023-11-21T05:25:19;10.40;97.80
23560;DHT22;11958;50.836;4.438;2023-11-21T05:27:46;10.70;97.10
23560;DHT22;11958;50.836;4.438;2023-11-21T05:30:12;10.80;95.90
23560;DHT22;11958;50.836;4.438;2023-11-21T05:32:38;11.00;95.60
23560;DHT22;11958;50.836;4.438;2023-11-21T05:35:04;11.00;95.60
23560;DHT22;11958;50.836;4.438;2023-11-21T05:37:35;11.00;95.50
23560;DHT22;11958;50.836;4.438;2023-11-21T05:40:01;10.80;95.40
23560;DHT22;11958;50.836;4.438;2023-11-21T05:42:32;10.70;95.80
23560;DHT22;11958;50.836;4.438;2023-11-21T05:44:57;10.60;95.90
23560;DHT22;11958;50.836;4.438;2023-11-21T05:47:25;10.90;95.70
23560;DHT22;11958;50.836;4.438;2023-11-21T05:49:53;11.20;94.20
23560;DHT22;11958;50.836;4.438;2023-11-21T05:52:19;11.00;95.00
23560;DHT22;11958;50.836;4.438;2023-11-21T05:54:46;10.90;94.70
23560;DHT22;11958;50.836;4.438;2023-11-21T05:57:12;10.70;95.30
23560;DHT22;11958;50.836;4.438;2023-11-21T05:59:38;10.70;96.00
23560;DHT22;11958;50.836;4.438;2023-11-21T06:02:04;10.80;95.80
23560;DHT22;11958;50.836;4.438;2023-11-21T06:04:30;10.70;95.50
23560;DHT22;11958;50.836;4.438;2023-11-21T06:06:56;10.60;96.20
23560;DHT22;11958;50.836;4.438;2023-11-21T06:09:22;10.50;96.70
23560;DHT22;11958;50.836;4.438;2023-11-21T06:11:48;10.50;96.70
23560;DHT22;11958;50.836;4.438;2023-11-21T06:14:14;10.60;96.80
23560;DHT22;11958;50.836;4.438;2023-11-21T06:16:40;10.60;97.00
23560;DHT22;11958;50.836;4.438;2023-11-21T06:19:06;10.50;96.70
23560;DHT22;11958;50.836;4.438;2023-11-21T06:21:31;10.40;97.50
23560;DHT22;11958;50.836;4.438;2023-11-21T06:23:58;10.60;97.50
23560;DHT22;11958;50.836;4.438;2023-11-21T06:26:23;10.90;97.10
23560;DHT22;11958;50.836;4.438;2023-11-21T06:28:51;11.20;95.60
23560;DHT22;11958;50.836;4.438;2023-11-21T06:31:19;11.50;94.90
23560;DHT22;11958;50.836;4.438;2023-11-21T06:33:45;11.50;94.30
23560;DHT22;11958;50.836;4.438;2023-11-21T06:36:10;11.20;94.30
23560;DHT22;11958;50.836;4.438;2023-11-21T06:38:39;11.20;94.80
23560;DHT22;11958;50.836;4.438;2023-11-21T06:41:05;11.70;94.00
23560;DHT22;11958;50.836;4.438;2023-11-21T06:43:31;11.70;93.30
23560;DHT22;11958;50.836;4.438;2023-11-21T06:45:57;11.60;93.20
23560;DHT22;11958;50.836;4.438;2023-11-21T06:48:23;11.30;93.90
23560;DHT22;11958;50.836;4.438;2023-11-21T06:50:48;10.90;95.00
23560;DHT22;11958;50.836;4.438;2023-11-21T06:53:14;10.80;95.80
23560;DHT22;11958;50.836;4.438;2023-11-21T06:55:40;10.80;96.30
23560;DHT22;11958;50.836;4.438;2023-11-21T06:58:06;10.60;96.50
23560;DHT22;11958;50.836;4.438;2023-11-21T07:00:31;10.70;96.80
23560;DHT22;11958;50.836;4.438;2023-11-21T07:02:57;10.80;96.80
23560;DHT22;11958;50.836;4.438;2023-11-21T07:05:23;10.80;96.80
23560;DHT22;11958;50.836;4.438;2023-11-21T07:07:50;10.70;96.70
23560;DHT22;11958;50.836;4.438;2023-11-21T07:10:16;11.00;96.60
23560;DHT22;11958;50.836;4.438;2023-11-21T07:12:42;11.10;95.40
23560;DHT22;11958;50.836;4.438;2023-11-21T07:15:08;10.80;96.10
23560;DHT22;11958;50.836;4.438;2023-11-21T07:17:37;10.70;96.70
23560;DHT22;11958;50.836;4.438;2023-11-21T07:20:04;10.70;96.90
23560;DHT22;11958;50.836;4.438;2023-11-21T07:22:30;10.60;97.50
23560;DHT22;11958;50.836;4.438;2023-11-21T07:24:55;10.60;97.90
23560;DHT22;11958;50.836;4.438;2023-11-21T07:27:24;10.50;97.80
23560;DHT22;11958;50.836;4.438;2023-11-21T07:29:50;10.50;98.00
23560;DHT22;11958;50.836;4.438;2023-11-21T07:32:15;10.50;98.60
23560;DHT22;11958;50.836;4.438;2023-11-21T07:34:41;10.50;98.50
23560;DHT22;11958;50.836;4.438;2023-11-21T07:37:08;10.50;98.70
23560;DHT22;11958;50.836;4.438;2023-11-21T07:39:35;10.50;98.80
23560;DHT22;11958;50.836;4.438;2023-11-21T07:42:02;10.60;98.70
23560;DHT22;11958;50.836;4.438;2023-11-21T07:44:28;11.00;98.70
23560;DHT22;11958;50.836;4.438;2023-11-21T07:46:54;11.00;97.80
23560;DHT22;11958;50.836;4.438;2023-11-21T07:49:26;11.20;96.70
23560;DHT22;11958;50.836;4.438;2023-11-21T07:51:54;11.60;96.30
23560;DHT22;11958;50.836;4.438;2023-11-21T07:54:20;11.80;95.20
23560;DHT22;11958;50.836;4.438;2023-11-21T07:56:47;11.50;94.90
23560;DHT22;11958;50.836;4.438;2023-11-21T07:59:12;11.30;95.80
23560;DHT22;11958;50.836;4.438;2023-11-21T08:01:39;11.30;96.30
23560;DHT22;11958;50.836;4.438;2023-11-21T08:04:08;11.30;96.50
23560;DHT22;11958;50.836;4.438;2023-11-21T08:06:34;11.30;97.20
23560;DHT22;11958;50.836;4.438;2023-11-21T08:09:00;11.10;96.90
23560;DHT22;11958;50.836;4.438;2023-11-21T08:11:25;11.30;96.70
23560;DHT22;11958;50.836;4.438;2023-11-21T08:13:56;11.40;96.30
23560;DHT22;11958;50.836;4.438;2023-11-21T08:16:22;11.10;96.70
23560;DHT22;11958;50.836;4.438;2023-11-21T08:18:49;11.30;97.00
23560;DHT22;11958;50.836;4.438;2023-11-21T08:21:15;11.40;96.60
23560;DHT22;11958;50.836;4.438;2023-11-21T08:23:46;11.30;96.40
23560;DHT22;11958;50.836;4.438;2023-11-21T08:26:18;11.20;97.10
23560;DHT22;11958;50.836;4.438;2023-11-21T08:28:44;11.20;97.40
23560;DHT22;11958;50.836;4.438;2023-11-21T08:31:10;11.00;97.50
23560;DHT22;11958;50.836;4.438;2023-11-21T08:33:35;11.20;97.90
23560;DHT22;11958;50.836;4.438;2023-11-21T08:36:07;11.60;97.20
23560;DHT22;11958;50.836;4.438;2023-11-21T08:38:33;11.50;96.90
23560;DHT22;11958;50.836;4.438;2023-11-21T08:40:59;11.30;96.90
23560;DHT22;11958;50.836;4.438;2023-11-21T08:43:25;11.60;97.00
23560;DHT22;11958;50.836;4.438;2023-11-21T08:45:52;11.90;96.40
23560;DHT22;11958;50.836;4.438;2023-11-21T08:48:18;11.90;96.20
23560;DHT22;11958;50.836;4.438;2023-11-21T08:50:44;11.80;95.90
23560;DHT22;11958;50.836;4.438;2023-11-21T08:53:09;11.60;96.50
23560;DHT22;11958;50.836;4.438;2023-11-21T08:55:36;11.50;96.60
23560;DHT22;11958;50.836;4.438;2023-11-21T08:58:02;11.50;96.80
23560;DHT22;11958;50.836;4.438;2023-11-21T09:00:31;11.50;96.30
23560;DHT22;11958;50.836;4.438;2023-11-21T09:02:57;11.30;97.10
23560;DHT22;11958;50.836;4.438;2023-11-21T09:05:23;11.50;97.50
23560;DHT22;11958;50.836;4.438;2023-11-21T09:07:49;11.30;97.80
23560;DHT22;11958;50.836;4.438;2023-11-21T09:10:15;11.40;98.20
23560;DHT22;11958;50.836;4.438;2023-11-21T09:12:41;11.50;97.80
23560;DHT22;11958;50.836;4.438;2023-11-21T09:15:09;11.40;98.40
23560;DHT22;11958;50.836;4.438;2023-11-21T09:17:36;11.40;98.40
23560;DHT22;11958;50.836;4.438;2023-11-21T09:20:04;11.60;98.80
23560;DHT22;11958;50.836;4.438;2023-11-21T09:22:31;11.70;98.20
23560;DHT22;11958;50.836;4.438;2023-11-21T09:24:58;11.70;98.30
23560;DHT22;11958;50.836;4.438;2023-11-21T09:27:24;11.50;98.10
23560;DHT22;11958;50.836;4.438;2023-11-21T09:29:51;11.50;97.70
23560;DHT22;11958;50.836;4.438;2023-11-21T09:32:18;11.50;98.10
23560;DHT22;11958;50.836;4.438;2023-11-21T09:34:44;11.40;97.80
23560;DHT22;11958;50.836;4.438;2023-11-21T09:37:10;11.40;98.40
23560;DHT22;11958;50.836;4.438;2023-11-21T09:39:36;11.50;98.50
23560;DHT22;11958;50.836;4.438;2023-11-21T09:42:25;11.60;98.80
23560;DHT22;11958;50.836;4.438;2023-11-21T09:45:41;11.50;98.80
23560;DHT22;11958;50.836;4.438;2023-11-21T09:48:01;11.70;99.10
23560;DHT22;11958;50.836;4.438;2023-11-21T09:50:27;11.90;98.50
23560;DHT22;11958;50.836;4.438;2023-11-21T09:53:19;11.80;98.70
23560;DHT22;11958;50.836;4.438;2023-11-21T09:55:53;11.80;98.60
23560;DHT22;11958;50.836;4.438;2023-11-21T09:58:19;11.80;98.70
23560;DHT22;11958;50.836;4.438;2023-11-21T10:00:49;11.80;98.50
23560;DHT22;11958;50.836;4.438;2023-11-21T10:03:15;11.60;98.40
23560;DHT22;11958;50.836;4.438;2023-11-21T10:05:45;11.80;98.60
23560;DHT22;11958;50.836;4.438;2023-11-21T10:08:12;11.50;98.00
23560;DHT22;11958;50.836;4.438;2023-11-21T10:10:45;11.50;98.40
23560;DHT22;11958;50.836;4.438;2023-11-21T10:13:14;11.60;98.20
23560;DHT22;11958;50.836;4.438;2023-11-21T10:15:42;11.60;98.30
23560;DHT22;11958;50.836;4.438;2023-11-21T10:18:14;11.60;98.10
23560;DHT22;11958;50.836;4.438;2023-11-21T10:20:44;11.50;98.30
23560;DHT22;11958;50.836;4.438;2023-11-21T10:23:21;11.40;98.80
23560;DHT22;11958;50.836;4.438;2023-11-21T10:25:47;11.10;98.50
23560;DHT22;11958;50.836;4.438;2023-11-21T10:28:15;11.30;98.70
23560;DHT22;11958;50.836;4.438;2023-11-21T10:30:41;11.40;98.40
23560;DHT22;11958;50.836;4.438;2023-11-21T10:33:07;11.50;98.50
23560;DHT22;11958;50.836;4.438;2023-11-21T10:35:43;11.30;97.60
23560;DHT22;11958;50.836;4.438;2023-11-21T10:38:12;11.60;98.10
23560;DHT22;11958;50.836;4.438;2023-11-21T10:40:42;11.60;97.60
23560;DHT22;11958;50.836;4.438;2023-11-21T10:43:10;11.60;97.30
23560;DHT22;11958;50.836;4.438;2023-11-21T10:45:39;11.70;96.90
23560;DHT22;11958;50.836;4.438;2023-11-21T10:48:06;11.90;97.10
23560;DHT22;11958;50.836;4.438;2023-11-21T10:50:34;12.10;97.20
23560;DHT22;11958;50.836;4.438;2023-11-21T10:53:02;11.80;95.60
23560;DHT22;11958;50.836;4.438;2023-11-21T10:55:29;12.10;95.80
23560;DHT22;11958;50.836;4.438;2023-11-21T10:58:01;12.30;95.40
23560;DHT22;11958;50.836;4.438;2023-11-21T11:00:29;12.20;95.20
23560;DHT22;11958;50.836;4.438;2023-11-21T11:02:55;12.20;95.10
23560;DHT22;11958;50.836;4.438;2023-11-21T11:05:23;12.30;95.00
23560;DHT22;11958;50.836;4.438;2023-11-21T11:08:04;12.40;94.80
23560;DHT22;11958;50.836;4.438;2023-11-21T11:10:30;12.50;94.00
23560;DHT22;11958;50.836;4.438;2023-11-21T11:12:57;12.50;93.80
23560;DHT22;11958;50.836;4.438;2023-11-21T11:15:24;12.60;94.20
23560;DHT22;11958;50.836;4.438;2023-11-21T11:17:50;12.60;94.70
23560;DHT22;11958;50.836;4.438;2023-11-21T11:20:17;12.60;94.00
23560;DHT22;11958;50.836;4.438;2023-11-21T11:25:42;12.70;92.80
23560;DHT22;11958;50.836;4.438;2023-11-21T11:28:35;12.50;94.50
23560;DHT22;11958;50.836;4.438;2023-11-21T11:31:14;12.50;95.00
23560;DHT22;11958;50.836;4.438;2023-11-21T11:33:58;12.50;95.00
23560;DHT22;11958;50.836;4.438;2023-11-21T11:36:44;12.50;95.00
23560;DHT22;11958;50.836;4.438;2023-11-21T11:39:35;12.50;94.50
23560;DHT22;11958;50.836;4.438;2023-11-21T11:42:03;12.60;94.40
23560;DHT22;11958;50.836;4.438;2023-11-21T11:47:32;12.50;94.40
23560;DHT22;11958;50.836;4.438;2023-11-21T11:50:07;12.50;95.00
23560;DHT22;11958;50.836;4.438;2023-11-21T11:52:43;12.40;95.10
23560;DHT22;11958;50.836;4.438;2023-11-21T11:55:10;12.40;94.60
23560;DHT22;11958;50.836;4.438;2023-11-21T11:57:39;12.40;94.80
23560;DHT22;11958;50.836;4.438;2023-11-21T12:00:18;12.20;95.00
23560;DHT22;11958;50.836;4.438;2023-11-21T12:03:05;12.30;95.40
23560;DHT22;11958;50.836;4.438;2023-11-21T12:05:33;12.50;94.60
23560;DHT22;11958;50.836;4.438;2023-11-21T12:08:05;12.30;95.00
23560;DHT22;11958;50.836;4.438;2023-11-21T12:10:33;12.40;95.30
23560;DHT22;11958;50.836;4.438;2023-11-21T12:13:05;12.20;95.60
23560;DHT22;11958;50.836;4.438;2023-11-21T12:15:36;12.10;96.30
23560;DHT22;11958;50.836;4.438;2023-11-21T12:18:02;12.10;96.70
23560;DHT22;11958;50.836;4.438;2023-11-21T12:20:29;12.00;97.30
23560;DHT22;11958;50.836;4.438;2023-11-21T12:22:58;12.10;97.70
23560;DHT22;11958;50.836;4.438;2023-11-21T12:25:28;12.10;96.80
23560;DHT22;11958;50.836;4.438;2023-11-21T12:27:55;12.20;96.90
23560;DHT22;11958;50.836;4.438;2023-11-21T12:30:24;12.20;96.80
23560;DHT22;11958;50.836;4.438;2023-11-21T12:32:51;12.00;96.80
23560;DHT22;11958;50.836;4.438;2023-11-21T12:35:18;12.00;96.70
23560;DHT22;11958;50.836;4.438;2023-11-21T12:37:47;11.90;96.90
23560;DHT22;11958;50.836;4.438;2023-11-21T12:40:14;12.20;96.60
23560;DHT22;11958;50.836;4.438;2023-11-21T12:42:42;12.00;96.50
23560;DHT22;11958;50.836;4.438;2023-11-21T12:45:30;11.90;96.70
23560;DHT22;11958;50.836;4.438;2023-11-21T12:50:25;12.20;96.00
23560;DHT22;11958;50.836;4.438;2023-11-21T12:53:15;12.30;96.20
23560;DHT22;11958;50.836;4.438;2023-11-21T12:55:44;12.20;96.50
23560;DHT22;11958;50.836;4.438;2023-11-21T12:58:15;12.30;96.80
23560;DHT22;11958;50.836;4.438;2023-11-21T13:00:48;12.30;96.40
23560;DHT22;11958;50.836;4.438;2023-11-21T13:03:16;12.30;96.30
23560;DHT22;11958;50.836;4.438;2023-11-21T13:05:44;12.40;96.40
23560;DHT22;11958;50.836;4.438;2023-11-21T13:08:11;12.30;95.90
23560;DHT22;11958;50.836;4.438;2023-11-21T13:10:43;12.40;95.20
23560;DHT22;11958;50.836;4.438;2023-11-21T13:13:12;12.20;95.70
23560;DHT22;11958;50.836;4.438;2023-11-21T13:15:50;12.10;95.70
23560;DHT22;11958;50.836;4.438;2023-11-21T13:18:16;11.90;96.60
23560;DHT22;11958;50.836;4.438;2023-11-21T13:20:43;11.90;96.90
23560;DHT22;11958;50.836;4.438;2023-11-21T13:23:10;11.70;97.30
23560;DHT22;11958;50.836;4.438;2023-11-21T13:25:44;11.70;97.30
23560;DHT22;11958;50.836;4.438;2023-11-21T13:28:14;11.80;98.30
23560;DHT22;11958;50.836;4.438;2023-11-21T13:30:48;11.50;98.30
23560;DHT22;11958;50.836;4.438;2023-11-21T13:33:14;11.70;98.40
23560;DHT22;11958;50.836;4.438;2023-11-21T13:35:47;11.50;98.60
23560;DHT22;11958;50.836;4.438;2023-11-21T13:38:16;11.90;98.70
23560;DHT22;11958;50.836;4.438;2023-11-21T13:40:55;11.80;98.80
23560;DHT22;11958;50.836;4.438;2023-11-21T13:43:23;11.70;98.20
23560;DHT22;11958;50.836;4.438;2023-11-21T13:45:54;11.50;99.20
23560;DHT22;11958;50.836;4.438;2023-11-21T13:48:49;11.70;99.60
23560;DHT22;11958;50.836;4.438;2023-11-21T13:51:47;12.00;99.20
23560;DHT22;11958;50.836;4.438;2023-11-21T13:54:26;11.80;99.00
23560;DHT22;11958;50.836;4.438;2023-11-21T13:56:52;11.90;99.00
23560;DHT22;11958;50.836;4.438;2023-11-21T13:59:18;11.90;99.10
23560;DHT22;11958;50.836;4.438;2023-11-21T14:01:52;11.70;99.00
23560;DHT22;11958;50.836;4.438;2023-11-21T14:04:21;11.90;99.10
23560;DHT22;11958;50.836;4.438;2023-11-21T14:07:01;11.80;99.20
23560;DHT22;11958;50.836;4.438;2023-11-21T14:09:39;12.00;99.30
23560;DHT22;11958;50.836;4.438;2023-11-21T14:12:09;11.80;98.90
23560;DHT22;11958;50.836;4.438;2023-11-21T14:14:38;11.90;98.70
23560;DHT22;11958;50.836;4.438;2023-11-21T14:17:05;11.90;98.40
23560;DHT22;11958;50.836;4.438;2023-11-21T14:19:32;11.90;98.50
23560;DHT22;11958;50.836;4.438;2023-11-21T14:21:59;11.90;98.20
23560;DHT22;11958;50.836;4.438;2023-11-21T14:24:26;11.70;98.40
23560;DHT22;11958;50.836;4.438;2023-11-21T14:26:51;11.60;98.40
23560;DHT22;11958;50.836;4.438;2023-11-21T14:29:18;11.70;99.20
23560;DHT22;11958;50.836;4.438;2023-11-21T14:31:49;11.80;98.60
23560;DHT22;11958;50.836;4.438;2023-11-21T14:34:22;11.70;99.00
23560;DHT22;11958;50.836;4.438;2023-11-21T14:36:48;11.40;99.00
23560;DHT22;11958;50.836;4.438;2023-11-21T14:39:14;11.50;99.30
23560;DHT22;11958;50.836;4.438;2023-11-21T14:41:49;11.50;99.60
23560;DHT22;11958;50.836;4.438;2023-11-21T14:44:15;11.60;99.40
23560;DHT22;11958;50.836;4.438;2023-11-21T14:46:41;11.50;98.80
23560;DHT22;11958;50.836;4.438;2023-11-21T14:49:12;11.50;99.30
23560;DHT22;11958;50.836;4.438;2023-11-21T14:51:53;11.60;99.30
23560;DHT22;11958;50.836;4.438;2023-11-21T14:54:32;11.60;99.60
23560;DHT22;11958;50.836;4.438;2023-11-21T14:57:14;11.40;99.60
23560;DHT22;11958;50.836;4.438;2023-11-21T14:59:48;11.30;99.90
23560;DHT22;11958;50.836;4.438;2023-11-21T15:02:17;11.20;99.90
23560;DHT22;11958;50.836;4.438;2023-11-21T15:04:50;11.20;99.90
23560;DHT22;11958;50.836;4.438;2023-11-21T15:07:18;11.00;99.90
23560;DHT22;11958;50.836;4.438;2023-11-21T15:09:44;11.10;99.90
23560;DHT22;11958;50.836;4.438;2023-11-21T15:12:11;11.10;99.90
23560;DHT22;11958;50.836;4.438;2023-11-21T15:14:51;11.10;99.90
23560;DHT22;11958;50.836;4.438;2023-11-21T15:17:23;11.00;99.90
23560;DHT22;11958;50.836;4.438;2023-11-21T15:19:52;11.00;99.90
23560;DHT22;11958;50.836;4.438;2023-11-21T15:22:18;11.00;99.90
23560;DHT22;11958;50.836;4.438;2023-11-21T15:24:44;11.00;99.90
23560;DHT22;11958;50.836;4.438;2023-11-21T15:27:14;10.80;99.90
23560;DHT22;11958;50.836;4.438;2023-11-21T15:29:41;10.90;99.90
23560;DHT22;11958;50.836;4.438;2023-11-21T15:32:07;11.00;99.90
23560;DHT22;11958;50.836;4.438;2023-11-21T15:34:37;11.00;99.90
23560;DHT22;11958;50.836;4.438;2023-11-21T15:37:07;10.90;99.90
23560;DHT22;11958;50.836;4.438;2023-11-21T15:39:42;11.00;99.90
23560;DHT22;11958;50.836;4.438;2023-11-21T16:01:33;11.10;99.90
23560;DHT22;11958;50.836;4.438;2023-11-21T16:04:00;11.10;99.90